sensor_id;sensor_type;location;lat;lon;timestamp;P1;durP1;ratioP1;P2;durP2;ratioP2
9374;SDS011;4727;51.202;6.344;2023-03-14T00:01:16;5.70;;;2.93;;
9374;SDS011;4727;51.202;6.344;2023-03-14T00:03:42;7.20;;;2.80;;
9374;SDS011;4727;51.202;6.344;2023-03-14T00:06:09;8.70;;;3.53;;
9374;SDS011;4727;51.202;6.344;2023-03-14T00:08:35;7.73;;;3.10;;
9374;SDS011;4727;51.202;6.344;2023-03-14T00:11:12;10.13;;;3.03;;
9374;SDS011;4727;51.202;6.344;2023-03-14T00:13:38;6.57;;;3.10;;
9374;SDS011;4727;51.202;6.344;2023-03-14T00:16:05;3.40;;;2.57;;
9374;SDS011;4727;51.202;6.344;2023-03-14T00:18:31;2.43;;;1.63;;
9374;SDS011;4727;51.202;6.344;2023-03-14T00:21:05;4.77;;;2.33;;
9374;SDS011;4727;51.202;6.344;2023-03-14T00:23:32;5.50;;;2.27;;
9374;SDS011;4727;51.202;6.344;2023-03-14T00:25:59;5.93;;;2.47;;
9374;SDS011;4727;51.202;6.344;2023-03-14T00:28:29;3.00;;;1.53;;
9374;SDS011;4727;51.202;6.344;2023-03-14T00:30:55;5.70;;;2.10;;
9374;SDS011;4727;51.202;6.344;2023-03-14T00:33:26;3.20;;;1.83;;
9374;SDS011;4727;51.202;6.344;2023-03-14T00:35:55;3.67;;;2.30;;
9374;SDS011;4727;51.202;6.344;2023-03-14T00:38:22;6.00;;;2.60;;
9374;SDS011;4727;51.202;6.344;2023-03-14T00:40:49;6.23;;;2.47;;
9374;SDS011;4727;51.202;6.344;2023-03-14T00:43:15;7.73;;;2.00;;
9374;SDS011;4727;51.202;6.344;2023-03-14T00:45:41;3.40;;;1.77;;
9374;SDS011;4727;51.202;6.344;2023-03-14T00:48:10;8.40;;;2.80;;
9374;SDS011;4727;51.202;6.344;2023-03-14T00:50:36;4.07;;;1.60;;
9374;SDS011;4727;51.202;6.344;2023-03-14T00:53:02;5.63;;;2.07;;
9374;SDS011;4727;51.202;6.344;2023-03-14T00:55:28;2.73;;;1.17;;
9374;SDS011;4727;51.202;6.344;2023-03-14T00:57:54;3.53;;;1.87;;
9374;SDS011;4727;51.202;6.344;2023-03-14T01:00:20;4.30;;;1.93;;
9374;SDS011;4727;51.202;6.344;2023-03-14T01:02:46;4.37;;;1.87;;
9374;SDS011;4727;51.202;6.344;2023-03-14T01:05:12;4.70;;;2.07;;
9374;SDS011;4727;51.202;6.344;2023-03-14T01:07:38;5.47;;;1.73;;
9374;SDS011;4727;51.202;6.344;2023-03-14T01:10:04;4.33;;;1.40;;
9374;SDS011;4727;51.202;6.344;2023-03-14T01:12:32;4.60;;;2.53;;
9374;SDS011;4727;51.202;6.344;2023-03-14T01:14:58;4.67;;;1.90;;
9374;SDS011;4727;51.202;6.344;2023-03-14T01:17:24;3.23;;;1.63;;
9374;SDS011;4727;51.202;6.344;2023-03-14T01:19:50;1.70;;;1.27;;
9374;SDS011;4727;51.202;6.344;2023-03-14T01:22:16;3.77;;;2.20;;
9374;SDS011;4727;51.202;6.344;2023-03-14T01:24:42;5.43;;;2.23;;
9374;SDS011;4727;51.202;6.344;2023-03-14T01:27:08;3.03;;;2.27;;
9374;SDS011;4727;51.202;6.344;2023-03-14T01:29:34;6.17;;;1.93;;
9374;SDS011;4727;51.202;6.344;2023-03-14T01:32:00;3.90;;;1.63;;
9374;SDS011;4727;51.202;6.344;2023-03-14T01:34:26;3.30;;;1.87;;
9374;SDS011;4727;51.202;6.344;2023-03-14T01:36:52;4.07;;;2.00;;
9374;SDS011;4727;51.202;6.344;2023-03-14T01:39:18;3.67;;;2.03;;
9374;SDS011;4727;51.202;6.344;2023-03-14T01:41:44;3.87;;;2.20;;
9374;SDS011;4727;51.202;6.344;2023-03-14T01:44:10;7.23;;;2.40;;
9374;SDS011;4727;51.202;6.344;2023-03-14T01:46:40;4.83;;;2.10;;
9374;SDS011;4727;51.202;6.344;2023-03-14T01:49:24;6.33;;;2.20;;
9374;SDS011;4727;51.202;6.344;2023-03-14T01:54:23;4.13;;;2.13;;
9374;SDS011;4727;51.202;6.344;2023-03-14T01:56:55;6.10;;;2.20;;
9374;SDS011;4727;51.202;6.344;2023-03-14T01:59:23;6.03;;;2.50;;
9374;SDS011;4727;51.202;6.344;2023-03-14T02:01:53;5.37;;;2.13;;
9374;SDS011;4727;51.202;6.344;2023-03-14T02:04:25;4.93;;;2.57;;
9374;SDS011;4727;51.202;6.344;2023-03-14T02:07:00;4.97;;;2.60;;
9374;SDS011;4727;51.202;6.344;2023-03-14T02:09:28;6.23;;;3.07;;
9374;SDS011;4727;51.202;6.344;2023-03-14T02:12:03;5.73;;;2.13;;
9374;SDS011;4727;51.202;6.344;2023-03-14T02:14:32;5.03;;;2.30;;
9374;SDS011;4727;51.202;6.344;2023-03-14T02:17:00;8.60;;;3.10;;
9374;SDS011;4727;51.202;6.344;2023-03-14T02:22:11;7.30;;;2.60;;
9374;SDS011;4727;51.202;6.344;2023-03-14T02:25:02;5.07;;;2.67;;
9374;SDS011;4727;51.202;6.344;2023-03-14T02:27:24;7.13;;;2.80;;
9374;SDS011;4727;51.202;6.344;2023-03-14T02:30:25;5.40;;;2.50;;
9374;SDS011;4727;51.202;6.344;2023-03-14T02:32:44;8.13;;;2.90;;
9374;SDS011;4727;51.202;6.344;2023-03-14T02:35:12;5.37;;;2.40;;
9374;SDS011;4727;51.202;6.344;2023-03-14T02:37:45;5.57;;;2.50;;
9374;SDS011;4727;51.202;6.344;2023-03-14T02:40:15;5.80;;;2.57;;
9374;SDS011;4727;51.202;6.344;2023-03-14T02:42:44;7.57;;;2.77;;
9374;SDS011;4727;51.202;6.344;2023-03-14T02:47:40;7.33;;;2.43;;
9374;SDS011;4727;51.202;6.344;2023-03-14T02:50:13;6.40;;;2.27;;
9374;SDS011;4727;51.202;6.344;2023-03-14T02:52:40;6.00;;;2.50;;
9374;SDS011;4727;51.202;6.344;2023-03-14T02:55:06;5.17;;;2.43;;
9374;SDS011;4727;51.202;6.344;2023-03-14T02:57:34;6.07;;;2.53;;
9374;SDS011;4727;51.202;6.344;2023-03-14T03:00:01;8.67;;;2.90;;
9374;SDS011;4727;51.202;6.344;2023-03-14T03:02:29;6.40;;;2.43;;
9374;SDS011;4727;51.202;6.344;2023-03-14T03:04:55;6.87;;;2.63;;
9374;SDS011;4727;51.202;6.344;2023-03-14T03:07:24;5.33;;;2.47;;
9374;SDS011;4727;51.202;6.344;2023-03-14T03:09:50;5.83;;;2.40;;
9374;SDS011;4727;51.202;6.344;2023-03-14T03:12:16;5.80;;;2.37;;
9374;SDS011;4727;51.202;6.344;2023-03-14T03:14:42;5.30;;;2.33;;
9374;SDS011;4727;51.202;6.344;2023-03-14T03:17:08;9.43;;;2.33;;
9374;SDS011;4727;51.202;6.344;2023-03-14T03:19:34;5.40;;;2.10;;
9374;SDS011;4727;51.202;6.344;2023-03-14T03:22:00;9.13;;;3.07;;
9374;SDS011;4727;51.202;6.344;2023-03-14T03:24:26;6.80;;;2.60;;
9374;SDS011;4727;51.202;6.344;2023-03-14T03:26:52;5.57;;;2.47;;
9374;SDS011;4727;51.202;6.344;2023-03-14T03:29:19;6.10;;;2.57;;
9374;SDS011;4727;51.202;6.344;2023-03-14T03:31:45;8.53;;;2.90;;
9374;SDS011;4727;51.202;6.344;2023-03-14T03:34:11;7.07;;;2.70;;
9374;SDS011;4727;51.202;6.344;2023-03-14T03:36:37;9.77;;;3.13;;
9374;SDS011;4727;51.202;6.344;2023-03-14T03:39:03;4.20;;;2.20;;
9374;SDS011;4727;51.202;6.344;2023-03-14T03:41:30;5.50;;;2.47;;
9374;SDS011;4727;51.202;6.344;2023-03-14T03:43:56;4.70;;;2.57;;
9374;SDS011;4727;51.202;6.344;2023-03-14T03:46:22;7.70;;;2.17;;
9374;SDS011;4727;51.202;6.344;2023-03-14T03:48:48;7.80;;;3.10;;
9374;SDS011;4727;51.202;6.344;2023-03-14T03:51:19;4.60;;;2.37;;
9374;SDS011;4727;51.202;6.344;2023-03-14T03:53:45;7.03;;;2.60;;
9374;SDS011;4727;51.202;6.344;2023-03-14T03:56:11;6.70;;;2.80;;
9374;SDS011;4727;51.202;6.344;2023-03-14T03:58:37;8.47;;;3.10;;
9374;SDS011;4727;51.202;6.344;2023-03-14T04:01:06;11.50;;;2.77;;
9374;SDS011;4727;51.202;6.344;2023-03-14T04:03:36;3.30;;;1.90;;
9374;SDS011;4727;51.202;6.344;2023-03-14T04:06:13;4.60;;;2.10;;
9374;SDS011;4727;51.202;6.344;2023-03-14T04:08:39;4.03;;;1.90;;
9374;SDS011;4727;51.202;6.344;2023-03-14T04:11:08;9.20;;;2.23;;
9374;SDS011;4727;51.202;6.344;2023-03-14T04:13:34;2.10;;;1.60;;
9374;SDS011;4727;51.202;6.344;2023-03-14T04:16:00;3.37;;;2.00;;
9374;SDS011;4727;51.202;6.344;2023-03-14T04:18:26;6.37;;;1.73;;
9374;SDS011;4727;51.202;6.344;2023-03-14T04:20:55;2.50;;;1.60;;
9374;SDS011;4727;51.202;6.344;2023-03-14T04:23:21;3.37;;;1.80;;
9374;SDS011;4727;51.202;6.344;2023-03-14T04:25:49;5.43;;;1.90;;
9374;SDS011;4727;51.202;6.344;2023-03-14T04:28:15;5.63;;;1.90;;
9374;SDS011;4727;51.202;6.344;2023-03-14T04:30:41;3.40;;;1.80;;
9374;SDS011;4727;51.202;6.344;2023-03-14T04:33:07;4.03;;;1.40;;
9374;SDS011;4727;51.202;6.344;2023-03-14T04:35:33;5.63;;;2.10;;
9374;SDS011;4727;51.202;6.344;2023-03-14T04:38:00;3.07;;;1.70;;
9374;SDS011;4727;51.202;6.344;2023-03-14T04:40:26;2.73;;;1.70;;
9374;SDS011;4727;51.202;6.344;2023-03-14T04:43:06;3.03;;;2.10;;
9374;SDS011;4727;51.202;6.344;2023-03-14T04:45:32;1.77;;;1.47;;
9374;SDS011;4727;51.202;6.344;2023-03-14T04:48:04;2.53;;;2.07;;
9374;SDS011;4727;51.202;6.344;2023-03-14T04:50:33;3.00;;;2.33;;
9374;SDS011;4727;51.202;6.344;2023-03-14T04:52:59;2.60;;;2.40;;
9374;SDS011;4727;51.202;6.344;2023-03-14T04:55:25;6.67;;;2.40;;
9374;SDS011;4727;51.202;6.344;2023-03-14T04:57:51;3.63;;;2.23;;
9374;SDS011;4727;51.202;6.344;2023-03-14T05:00:17;5.73;;;2.47;;
9374;SDS011;4727;51.202;6.344;2023-03-14T05:02:46;2.60;;;1.97;;
9374;SDS011;4727;51.202;6.344;2023-03-14T05:05:17;4.43;;;2.77;;
9374;SDS011;4727;51.202;6.344;2023-03-14T05:15:38;3.17;;;1.83;;
9374;SDS011;4727;51.202;6.344;2023-03-14T05:18:04;2.03;;;1.50;;
9374;SDS011;4727;51.202;6.344;2023-03-14T05:20:30;2.27;;;1.40;;
9374;SDS011;4727;51.202;6.344;2023-03-14T05:22:56;1.77;;;1.23;;
9374;SDS011;4727;51.202;6.344;2023-03-14T05:25:22;2.10;;;1.27;;
9374;SDS011;4727;51.202;6.344;2023-03-14T05:27:48;3.70;;;1.30;;
9374;SDS011;4727;51.202;6.344;2023-03-14T05:30:14;2.03;;;1.00;;
9374;SDS011;4727;51.202;6.344;2023-03-14T05:32:40;1.57;;;1.30;;
9374;SDS011;4727;51.202;6.344;2023-03-14T05:35:06;2.67;;;1.10;;
9374;SDS011;4727;51.202;6.344;2023-03-14T05:37:32;0.87;;;0.87;;
9374;SDS011;4727;51.202;6.344;2023-03-14T05:39:59;4.00;;;1.10;;
9374;SDS011;4727;51.202;6.344;2023-03-14T05:42:25;0.73;;;0.70;;
9374;SDS011;4727;51.202;6.344;2023-03-14T05:44:51;0.80;;;0.73;;
9374;SDS011;4727;51.202;6.344;2023-03-14T05:47:17;1.13;;;0.67;;
9374;SDS011;4727;51.202;6.344;2023-03-14T05:49:43;1.73;;;1.10;;
9374;SDS011;4727;51.202;6.344;2023-03-14T05:52:09;0.93;;;0.63;;
9374;SDS011;4727;51.202;6.344;2023-03-14T05:54:35;0.77;;;0.77;;
9374;SDS011;4727;51.202;6.344;2023-03-14T05:57:01;0.60;;;0.60;;
9374;SDS011;4727;51.202;6.344;2023-03-14T05:59:27;0.73;;;0.73;;
9374;SDS011;4727;51.202;6.344;2023-03-14T06:01:53;0.87;;;0.80;;
9374;SDS011;4727;51.202;6.344;2023-03-14T06:04:19;0.80;;;0.80;;
9374;SDS011;4727;51.202;6.344;2023-03-14T06:06:45;0.77;;;0.70;;
9374;SDS011;4727;51.202;6.344;2023-03-14T06:09:11;1.13;;;0.60;;
9374;SDS011;4727;51.202;6.344;2023-03-14T06:11:42;1.40;;;0.50;;
9374;SDS011;4727;51.202;6.344;2023-03-14T06:14:13;0.97;;;0.57;;
9374;SDS011;4727;51.202;6.344;2023-03-14T06:16:39;0.57;;;0.50;;
9374;SDS011;4727;51.202;6.344;2023-03-14T06:19:11;0.73;;;0.73;;
9374;SDS011;4727;51.202;6.344;2023-03-14T06:21:40;0.50;;;0.50;;
9374;SDS011;4727;51.202;6.344;2023-03-14T06:24:08;1.90;;;0.73;;
9374;SDS011;4727;51.202;6.344;2023-03-14T06:26:36;0.93;;;0.47;;
9374;SDS011;4727;51.202;6.344;2023-03-14T06:29:02;3.90;;;0.80;;
9374;SDS011;4727;51.202;6.344;2023-03-14T06:31:34;0.57;;;0.57;;
9374;SDS011;4727;51.202;6.344;2023-03-14T06:34:00;1.03;;;0.70;;
9374;SDS011;4727;51.202;6.344;2023-03-14T06:36:26;0.93;;;0.90;;
9374;SDS011;4727;51.202;6.344;2023-03-14T06:38:52;0.77;;;0.70;;
9374;SDS011;4727;51.202;6.344;2023-03-14T06:41:18;0.93;;;0.93;;
9374;SDS011;4727;51.202;6.344;2023-03-14T06:43:44;0.87;;;0.87;;
9374;SDS011;4727;51.202;6.344;2023-03-14T06:46:10;2.20;;;1.27;;
9374;SDS011;4727;51.202;6.344;2023-03-14T07:06:08;2.07;;;1.97;;
9374;SDS011;4727;51.202;6.344;2023-03-14T07:08:34;5.03;;;2.10;;
9374;SDS011;4727;51.202;6.344;2023-03-14T07:11:00;2.63;;;2.53;;
9374;SDS011;4727;51.202;6.344;2023-03-14T07:13:26;2.10;;;2.00;;
9374;SDS011;4727;51.202;6.344;2023-03-14T07:15:52;3.30;;;2.60;;
9374;SDS011;4727;51.202;6.344;2023-03-14T07:18:18;3.10;;;2.40;;
9374;SDS011;4727;51.202;6.344;2023-03-14T07:20:45;2.67;;;2.47;;
9374;SDS011;4727;51.202;6.344;2023-03-14T07:23:11;2.50;;;2.30;;
9374;SDS011;4727;51.202;6.344;2023-03-14T07:25:37;2.60;;;2.30;;
9374;SDS011;4727;51.202;6.344;2023-03-14T07:28:03;2.73;;;2.53;;
9374;SDS011;4727;51.202;6.344;2023-03-14T07:30:29;3.17;;;2.93;;
9374;SDS011;4727;51.202;6.344;2023-03-14T07:32:55;4.33;;;2.73;;
9374;SDS011;4727;51.202;6.344;2023-03-14T07:35:21;2.60;;;2.50;;
9374;SDS011;4727;51.202;6.344;2023-03-14T07:37:47;2.60;;;2.50;;
9374;SDS011;4727;51.202;6.344;2023-03-14T07:40:13;2.70;;;2.60;;
9374;SDS011;4727;51.202;6.344;2023-03-14T07:42:40;2.57;;;2.47;;
9374;SDS011;4727;51.202;6.344;2023-03-14T07:45:06;2.70;;;2.50;;
9374;SDS011;4727;51.202;6.344;2023-03-14T07:47:33;2.40;;;2.30;;
9374;SDS011;4727;51.202;6.344;2023-03-14T07:49:59;2.17;;;2.07;;
9374;SDS011;4727;51.202;6.344;2023-03-14T07:52:25;2.20;;;2.10;;
9374;SDS011;4727;51.202;6.344;2023-03-14T07:54:51;2.73;;;2.53;;
9374;SDS011;4727;51.202;6.344;2023-03-14T07:57:17;2.50;;;2.30;;
9374;SDS011;4727;51.202;6.344;2023-03-14T07:59:43;2.13;;;2.03;;
9374;SDS011;4727;51.202;6.344;2023-03-14T08:02:10;2.60;;;2.40;;
9374;SDS011;4727;51.202;6.344;2023-03-14T08:04:37;2.03;;;1.97;;
9374;SDS011;4727;51.202;6.344;2023-03-14T08:07:03;2.50;;;2.33;;
9374;SDS011;4727;51.202;6.344;2023-03-14T08:09:29;2.43;;;2.10;;
9374;SDS011;4727;51.202;6.344;2023-03-14T08:11:55;2.07;;;1.97;;
9374;SDS011;4727;51.202;6.344;2023-03-14T08:14:21;2.60;;;2.50;;
9374;SDS011;4727;51.202;6.344;2023-03-14T08:16:50;2.60;;;2.40;;
9374;SDS011;4727;51.202;6.344;2023-03-14T08:19:16;2.40;;;2.30;;
9374;SDS011;4727;51.202;6.344;2023-03-14T08:21:42;2.73;;;2.60;;
9374;SDS011;4727;51.202;6.344;2023-03-14T08:24:09;6.60;;;3.00;;
9374;SDS011;4727;51.202;6.344;2023-03-14T08:26:35;3.23;;;3.00;;
9374;SDS011;4727;51.202;6.344;2023-03-14T08:29:01;3.37;;;3.07;;
9374;SDS011;4727;51.202;6.344;2023-03-14T08:31:29;4.67;;;2.90;;
9374;SDS011;4727;51.202;6.344;2023-03-14T08:33:57;3.83;;;3.13;;
9374;SDS011;4727;51.202;6.344;2023-03-14T08:36:23;3.00;;;2.80;;
9374;SDS011;4727;51.202;6.344;2023-03-14T08:38:49;3.17;;;2.97;;
9374;SDS011;4727;51.202;6.344;2023-03-14T08:41:15;3.20;;;3.00;;
9374;SDS011;4727;51.202;6.344;2023-03-14T08:43:41;3.90;;;3.07;;
9374;SDS011;4727;51.202;6.344;2023-03-14T08:46:07;3.00;;;2.80;;
9374;SDS011;4727;51.202;6.344;2023-03-14T08:48:33;3.57;;;2.80;;
9374;SDS011;4727;51.202;6.344;2023-03-14T08:51:07;2.57;;;2.47;;
9374;SDS011;4727;51.202;6.344;2023-03-14T08:53:33;2.70;;;2.10;;
9374;SDS011;4727;51.202;6.344;2023-03-14T08:55:59;0.87;;;0.53;;
9374;SDS011;4727;51.202;6.344;2023-03-14T08:58:25;0.53;;;0.40;;
9374;SDS011;4727;51.202;6.344;2023-03-14T09:00:51;1.47;;;1.03;;
9374;SDS011;4727;51.202;6.344;2023-03-14T09:03:17;0.60;;;0.60;;
9374;SDS011;4727;51.202;6.344;2023-03-14T09:05:43;0.60;;;0.60;;
9374;SDS011;4727;51.202;6.344;2023-03-14T09:08:09;1.23;;;0.93;;
9374;SDS011;4727;51.202;6.344;2023-03-14T09:10:35;0.80;;;0.80;;
9374;SDS011;4727;51.202;6.344;2023-03-14T09:13:01;1.00;;;1.00;;
9374;SDS011;4727;51.202;6.344;2023-03-14T09:15:27;1.27;;;1.27;;
9374;SDS011;4727;51.202;6.344;2023-03-14T09:17:53;1.20;;;1.20;;
9374;SDS011;4727;51.202;6.344;2023-03-14T09:20:19;2.00;;;1.90;;
9374;SDS011;4727;51.202;6.344;2023-03-14T09:22:45;2.27;;;2.07;;
9374;SDS011;4727;51.202;6.344;2023-03-14T09:25:11;1.97;;;1.90;;
9374;SDS011;4727;51.202;6.344;2023-03-14T09:27:37;2.33;;;2.23;;
9374;SDS011;4727;51.202;6.344;2023-03-14T09:30:03;3.10;;;2.90;;
9374;SDS011;4727;51.202;6.344;2023-03-14T09:32:30;7.83;;;7.10;;
9374;SDS011;4727;51.202;6.344;2023-03-14T09:34:56;3.80;;;3.60;;
9374;SDS011;4727;51.202;6.344;2023-03-14T09:37:22;3.80;;;3.60;;
9374;SDS011;4727;51.202;6.344;2023-03-14T09:39:48;3.67;;;3.37;;
9374;SDS011;4727;51.202;6.344;2023-03-14T09:42:16;4.40;;;4.10;;
9374;SDS011;4727;51.202;6.344;2023-03-14T09:44:47;2.80;;;2.70;;
9374;SDS011;4727;51.202;6.344;2023-03-14T09:47:15;2.30;;;2.20;;
9374;SDS011;4727;51.202;6.344;2023-03-14T09:49:44;2.30;;;2.20;;
9374;SDS011;4727;51.202;6.344;2023-03-14T09:54:44;2.77;;;2.33;;
9374;SDS011;4727;51.202;6.344;2023-03-14T09:57:15;2.00;;;1.90;;
9374;SDS011;4727;51.202;6.344;2023-03-14T09:59:43;2.83;;;2.67;;
9374;SDS011;4727;51.202;6.344;2023-03-14T10:02:16;4.30;;;3.70;;
9374;SDS011;4727;51.202;6.344;2023-03-14T10:04:44;4.07;;;3.80;;
9374;SDS011;4727;51.202;6.344;2023-03-14T10:07:14;5.77;;;4.67;;
9374;SDS011;4727;51.202;6.344;2023-03-14T10:09:44;6.13;;;4.70;;
9374;SDS011;4727;51.202;6.344;2023-03-14T10:12:10;6.00;;;4.97;;
9374;SDS011;4727;51.202;6.344;2023-03-14T10:14:38;4.80;;;4.40;;
9374;SDS011;4727;51.202;6.344;2023-03-14T10:17:11;6.57;;;3.70;;
9374;SDS011;4727;51.202;6.344;2023-03-14T10:19:38;4.03;;;3.63;;
9374;SDS011;4727;51.202;6.344;2023-03-14T10:22:16;5.30;;;3.60;;
9374;SDS011;4727;51.202;6.344;2023-03-14T10:24:46;4.30;;;3.23;;
9374;SDS011;4727;51.202;6.344;2023-03-14T10:27:22;3.10;;;2.90;;
9374;SDS011;4727;51.202;6.344;2023-03-14T10:29:52;2.67;;;2.47;;
9374;SDS011;4727;51.202;6.344;2023-03-14T10:32:20;4.27;;;2.70;;
9374;SDS011;4727;51.202;6.344;2023-03-14T10:34:46;2.83;;;2.63;;
9374;SDS011;4727;51.202;6.344;2023-03-14T10:37:28;2.80;;;2.60;;
9374;SDS011;4727;51.202;6.344;2023-03-14T10:39:55;5.03;;;2.80;;
9374;SDS011;4727;51.202;6.344;2023-03-14T10:42:30;2.97;;;2.70;;
9374;SDS011;4727;51.202;6.344;2023-03-14T10:45:06;2.70;;;2.50;;
9374;SDS011;4727;51.202;6.344;2023-03-14T10:47:33;4.03;;;2.70;;
9374;SDS011;4727;51.202;6.344;2023-03-14T10:50:21;2.80;;;2.53;;
9374;SDS011;4727;51.202;6.344;2023-03-14T10:52:48;1.67;;;1.57;;
9374;SDS011;4727;51.202;6.344;2023-03-14T10:55:15;2.40;;;1.60;;
9374;SDS011;4727;51.202;6.344;2023-03-14T10:57:42;2.40;;;2.20;;
9374;SDS011;4727;51.202;6.344;2023-03-14T11:00:12;2.77;;;1.87;;
9374;SDS011;4727;51.202;6.344;2023-03-14T11:02:49;2.40;;;2.20;;
9374;SDS011;4727;51.202;6.344;2023-03-14T11:05:24;4.03;;;2.20;;
9374;SDS011;4727;51.202;6.344;2023-03-14T11:07:53;2.60;;;2.40;;
9374;SDS011;4727;51.202;6.344;2023-03-14T11:20:35;3.87;;;2.73;;
9374;SDS011;4727;51.202;6.344;2023-03-14T11:23:14;4.53;;;2.60;;
9374;SDS011;4727;51.202;6.344;2023-03-14T11:25:52;4.97;;;2.90;;
9374;SDS011;4727;51.202;6.344;2023-03-14T11:28:28;2.60;;;2.50;;
9374;SDS011;4727;51.202;6.344;2023-03-14T11:36:37;3.73;;;2.13;;
9374;SDS011;4727;51.202;6.344;2023-03-14T11:39:07;5.80;;;2.23;;
9374;SDS011;4727;51.202;6.344;2023-03-14T11:44:01;1.73;;;1.50;;
9374;SDS011;4727;51.202;6.344;2023-03-14T11:46:32;1.97;;;1.50;;
9374;SDS011;4727;51.202;6.344;2023-03-14T11:49:03;1.93;;;1.27;;
9374;SDS011;4727;51.202;6.344;2023-03-14T11:51:34;2.10;;;1.53;;
9374;SDS011;4727;51.202;6.344;2023-03-14T11:54:20;1.47;;;1.20;;
9374;SDS011;4727;51.202;6.344;2023-03-14T11:56:52;3.60;;;1.93;;
9374;SDS011;4727;51.202;6.344;2023-03-14T11:59:21;6.27;;;2.50;;
9374;SDS011;4727;51.202;6.344;2023-03-14T12:07:03;3.80;;;2.20;;
9374;SDS011;4727;51.202;6.344;2023-03-14T12:09:35;5.73;;;2.53;;
9374;SDS011;4727;51.202;6.344;2023-03-14T12:12:02;5.03;;;2.00;;
9374;SDS011;4727;51.202;6.344;2023-03-14T12:14:30;6.10;;;2.43;;
9374;SDS011;4727;51.202;6.344;2023-03-14T12:16:58;9.70;;;2.70;;
9374;SDS011;4727;51.202;6.344;2023-03-14T12:19:28;10.10;;;2.20;;
9374;SDS011;4727;51.202;6.344;2023-03-14T12:22:05;7.80;;;2.13;;
9374;SDS011;4727;51.202;6.344;2023-03-14T12:24:34;9.73;;;2.70;;
9374;SDS011;4727;51.202;6.344;2023-03-14T12:27:02;5.77;;;2.80;;
9374;SDS011;4727;51.202;6.344;2023-03-14T12:29:31;8.13;;;3.00;;
9374;SDS011;4727;51.202;6.344;2023-03-14T12:32:20;9.30;;;2.83;;
9374;SDS011;4727;51.202;6.344;2023-03-14T12:34:47;9.80;;;3.10;;
9374;SDS011;4727;51.202;6.344;2023-03-14T12:37:23;8.30;;;3.23;;
9374;SDS011;4727;51.202;6.344;2023-03-14T12:43:02;13.30;;;3.57;;
9374;SDS011;4727;51.202;6.344;2023-03-14T12:48:48;10.93;;;3.40;;
9374;SDS011;4727;51.202;6.344;2023-03-14T12:51:18;8.53;;;3.70;;
9374;SDS011;4727;51.202;6.344;2023-03-14T13:11:19;10.13;;;2.80;;
9374;SDS011;4727;51.202;6.344;2023-03-14T13:13:49;5.07;;;2.60;;
9374;SDS011;4727;51.202;6.344;2023-03-14T13:16:27;8.13;;;2.77;;
9374;SDS011;4727;51.202;6.344;2023-03-14T13:19:00;10.87;;;3.20;;
9374;SDS011;4727;51.202;6.344;2023-03-14T13:21:39;9.60;;;3.10;;
9374;SDS011;4727;51.202;6.344;2023-03-14T13:27:29;11.10;;;2.80;;
9374;SDS011;4727;51.202;6.344;2023-03-14T13:29:55;11.23;;;3.40;;
9374;SDS011;4727;51.202;6.344;2023-03-14T13:32:25;10.00;;;3.50;;
9374;SDS011;4727;51.202;6.344;2023-03-14T13:35:13;10.27;;;3.37;;
9374;SDS011;4727;51.202;6.344;2023-03-14T13:37:45;12.47;;;3.50;;
9374;SDS011;4727;51.202;6.344;2023-03-14T13:46:04;10.93;;;3.13;;
9374;SDS011;4727;51.202;6.344;2023-03-14T13:48:30;12.97;;;4.10;;
9374;SDS011;4727;51.202;6.344;2023-03-14T13:51:07;11.17;;;3.77;;
9374;SDS011;4727;51.202;6.344;2023-03-14T13:53:46;12.70;;;4.00;;
9374;SDS011;4727;51.202;6.344;2023-03-14T13:56:12;11.70;;;3.70;;
9374;SDS011;4727;51.202;6.344;2023-03-14T13:58:39;13.40;;;3.87;;
9374;SDS011;4727;51.202;6.344;2023-03-14T14:03:51;17.30;;;4.00;;
9374;SDS011;4727;51.202;6.344;2023-03-14T14:08:49;12.37;;;3.70;;
9374;SDS011;4727;51.202;6.344;2023-03-14T14:11:19;9.43;;;4.23;;
9374;SDS011;4727;51.202;6.344;2023-03-14T14:13:45;13.47;;;3.50;;
9374;SDS011;4727;51.202;6.344;2023-03-14T14:16:11;12.40;;;4.30;;
9374;SDS011;4727;51.202;6.344;2023-03-14T14:18:38;10.13;;;3.10;;
9374;SDS011;4727;51.202;6.344;2023-03-14T14:21:04;10.87;;;3.30;;
9374;SDS011;4727;51.202;6.344;2023-03-14T14:23:31;17.30;;;4.57;;
9374;SDS011;4727;51.202;6.344;2023-03-14T14:25:58;11.20;;;3.90;;
9374;SDS011;4727;51.202;6.344;2023-03-14T14:28:26;16.33;;;3.80;;
9374;SDS011;4727;51.202;6.344;2023-03-14T14:31:01;10.87;;;3.77;;
9374;SDS011;4727;51.202;6.344;2023-03-14T14:33:28;9.30;;;3.60;;
9374;SDS011;4727;51.202;6.344;2023-03-14T14:35:57;7.93;;;2.97;;
9374;SDS011;4727;51.202;6.344;2023-03-14T14:38:25;12.00;;;3.30;;
9374;SDS011;4727;51.202;6.344;2023-03-14T14:40:52;8.30;;;3.10;;
9374;SDS011;4727;51.202;6.344;2023-03-14T14:43:21;10.23;;;3.00;;
9374;SDS011;4727;51.202;6.344;2023-03-14T14:45:47;9.67;;;2.90;;
9374;SDS011;4727;51.202;6.344;2023-03-14T14:48:14;10.47;;;2.97;;
9374;SDS011;4727;51.202;6.344;2023-03-14T14:53:29;8.43;;;2.97;;
9374;SDS011;4727;51.202;6.344;2023-03-14T14:55:56;9.83;;;2.67;;
9374;SDS011;4727;51.202;6.344;2023-03-14T14:58:24;8.40;;;2.40;;
9374;SDS011;4727;51.202;6.344;2023-03-14T15:00:54;6.80;;;2.53;;
9374;SDS011;4727;51.202;6.344;2023-03-14T15:03:20;7.00;;;3.87;;
9374;SDS011;4727;51.202;6.344;2023-03-14T15:05:47;6.10;;;1.97;;
9374;SDS011;4727;51.202;6.344;2023-03-14T15:08:13;3.80;;;2.00;;
9374;SDS011;4727;51.202;6.344;2023-03-14T15:10:39;8.23;;;2.73;;
9374;SDS011;4727;51.202;6.344;2023-03-14T15:13:05;3.37;;;2.47;;
9374;SDS011;4727;51.202;6.344;2023-03-14T15:15:31;4.63;;;2.20;;
9374;SDS011;4727;51.202;6.344;2023-03-14T15:17:57;2.83;;;2.10;;
9374;SDS011;4727;51.202;6.344;2023-03-14T15:20:23;4.73;;;1.70;;
9374;SDS011;4727;51.202;6.344;2023-03-14T15:22:49;4.30;;;2.27;;
9374;SDS011;4727;51.202;6.344;2023-03-14T15:25:15;5.53;;;2.00;;
9374;SDS011;4727;51.202;6.344;2023-03-14T15:27:42;6.00;;;2.50;;
9374;SDS011;4727;51.202;6.344;2023-03-14T15:30:14;3.93;;;1.93;;
9374;SDS011;4727;51.202;6.344;2023-03-14T15:32:40;8.80;;;2.50;;
9374;SDS011;4727;51.202;6.344;2023-03-14T15:35:06;7.00;;;2.43;;
9374;SDS011;4727;51.202;6.344;2023-03-14T15:37:33;5.40;;;2.70;;
9374;SDS011;4727;51.202;6.344;2023-03-14T15:40:00;8.67;;;2.83;;
9374;SDS011;4727;51.202;6.344;2023-03-14T15:42:27;8.33;;;3.00;;
9374;SDS011;4727;51.202;6.344;2023-03-14T15:44:53;7.70;;;3.03;;
9374;SDS011;4727;51.202;6.344;2023-03-14T15:47:19;9.53;;;3.63;;
9374;SDS011;4727;51.202;6.344;2023-03-14T15:49:45;5.47;;;2.90;;
9374;SDS011;4727;51.202;6.344;2023-03-14T15:52:11;9.97;;;3.03;;
9374;SDS011;4727;51.202;6.344;2023-03-14T15:54:37;7.07;;;2.80;;
9374;SDS011;4727;51.202;6.344;2023-03-14T15:57:03;6.30;;;2.97;;
9374;SDS011;4727;51.202;6.344;2023-03-14T15:59:31;5.60;;;2.77;;
9374;SDS011;4727;51.202;6.344;2023-03-14T16:01:57;5.53;;;2.70;;
9374;SDS011;4727;51.202;6.344;2023-03-14T16:04:23;6.60;;;2.63;;
9374;SDS011;4727;51.202;6.344;2023-03-14T16:06:49;6.10;;;2.47;;
9374;SDS011;4727;51.202;6.344;2023-03-14T16:09:15;5.17;;;2.60;;
9374;SDS011;4727;51.202;6.344;2023-03-14T16:11:41;7.60;;;2.67;;
9374;SDS011;4727;51.202;6.344;2023-03-14T16:14:08;7.07;;;2.80;;
9374;SDS011;4727;51.202;6.344;2023-03-14T16:16:34;6.07;;;2.60;;
9374;SDS011;4727;51.202;6.344;2023-03-14T16:19:01;6.37;;;2.93;;
9374;SDS011;4727;51.202;6.344;2023-03-14T16:21:29;2.37;;;1.80;;
9374;SDS011;4727;51.202;6.344;2023-03-14T16:23:57;8.37;;;3.70;;
9374;SDS011;4727;51.202;6.344;2023-03-14T16:26:24;9.10;;;2.73;;
9374;SDS011;4727;51.202;6.344;2023-03-14T16:28:50;7.10;;;2.50;;
9374;SDS011;4727;51.202;6.344;2023-03-14T16:31:17;3.93;;;2.20;;
9374;SDS011;4727;51.202;6.344;2023-03-14T16:33:45;5.50;;;2.03;;
9374;SDS011;4727;51.202;6.344;2023-03-14T16:36:12;5.93;;;2.50;;
9374;SDS011;4727;51.202;6.344;2023-03-14T16:38:39;7.57;;;2.53;;
9374;SDS011;4727;51.202;6.344;2023-03-14T16:41:07;8.60;;;2.67;;
9374;SDS011;4727;51.202;6.344;2023-03-14T16:43:34;5.07;;;2.67;;
9374;SDS011;4727;51.202;6.344;2023-03-14T16:46:01;5.40;;;2.43;;
9374;SDS011;4727;51.202;6.344;2023-03-14T16:48:27;5.63;;;2.43;;
9374;SDS011;4727;51.202;6.344;2023-03-14T16:50:53;10.53;;;2.40;;
9374;SDS011;4727;51.202;6.344;2023-03-14T16:53:20;7.17;;;2.33;;
9374;SDS011;4727;51.202;6.344;2023-03-14T16:55:46;10.67;;;3.43;;
9374;SDS011;4727;51.202;6.344;2023-03-14T16:58:12;9.07;;;3.17;;
9374;SDS011;4727;51.202;6.344;2023-03-14T17:00:38;8.50;;;3.10;;